sensor_id;sensor_type;location;lat;lon;timestamp;pressure;altitude;pressure_sealevel;temperature;humidity
36598;BME280;22607;49.550;11.940;2023-05-29T00:01:14;97020.38;;;14.30;63.29
36598;BME280;22607;49.550;11.940;2023-05-29T00:03:46;97019.88;;;14.41;63.80
36598;BME280;22607;49.550;11.940;2023-05-29T00:06:13;97018.75;;;14.29;64.18
36598;BME280;22607;49.550;11.940;2023-05-29T00:08:39;97014.00;;;14.17;65.84
36598;BME280;22607;49.550;11.940;2023-05-29T00:11:06;97014.88;;;14.25;64.92
36598;BME280;22607;49.550;11.940;2023-05-29T00:13:33;97024.66;;;14.31;64.22
36598;BME280;22607;49.550;11.940;2023-05-29T00:16:00;97022.78;;;14.25;66.12
36598;BME280;22607;49.550;11.940;2023-05-29T00:18:27;97016.97;;;14.08;65.33
36598;BME280;22607;49.550;11.940;2023-05-29T00:20:53;97028.66;;;13.76;67.34
36598;BME280;22607;49.550;11.940;2023-05-29T00:23:21;97022.31;;;13.93;67.07
36598;BME280;22607;49.550;11.940;2023-05-29T00:25:48;97022.75;;;13.74;68.66
36598;BME280;22607;49.550;11.940;2023-05-29T00:28:14;97024.56;;;13.74;67.36
36598;BME280;22607;49.550;11.940;2023-05-29T00:30:41;97013.75;;;13.69;67.84
36598;BME280;22607;49.550;11.940;2023-05-29T00:33:07;97025.00;;;13.56;68.75
36598;BME280;22607;49.550;11.940;2023-05-29T00:35:35;97022.91;;;13.51;70.68
36598;BME280;22607;49.550;11.940;2023-05-29T00:38:07;97027.91;;;13.46;72.22
36598;BME280;22607;49.550;11.940;2023-05-29T00:40:36;97033.28;;;13.37;72.39
36598;BME280;22607;49.550;11.940;2023-05-29T00:43:02;97028.06;;;13.44;70.04
36598;BME280;22607;49.550;11.940;2023-05-29T00:45:30;97029.66;;;13.38;71.77
36598;BME280;22607;49.550;11.940;2023-05-29T00:47:58;97026.13;;;13.16;73.80
36598;BME280;22607;49.550;11.940;2023-05-29T00:50:25;97024.94;;;13.19;75.89
36598;BME280;22607;49.550;11.940;2023-05-29T00:52:53;97013.50;;;13.11;74.30
36598;BME280;22607;49.550;11.940;2023-05-29T00:55:20;97029.41;;;13.18;74.75
36598;BME280;22607;49.550;11.940;2023-05-29T00:57:47;97023.69;;;13.15;73.00
36598;BME280;22607;49.550;11.940;2023-05-29T01:00:15;97019.22;;;13.15;75.11
36598;BME280;22607;49.550;11.940;2023-05-29T01:02:44;97012.06;;;12.94;76.60
36598;BME280;22607;49.550;11.940;2023-05-29T01:05:13;97022.59;;;12.94;77.42
36598;BME280;22607;49.550;11.940;2023-05-29T01:07:42;97014.69;;;12.94;77.82
36598;BME280;22607;49.550;11.940;2023-05-29T01:10:09;97017.06;;;12.73;81.26
36598;BME280;22607;49.550;11.940;2023-05-29T01:12:57;97017.16;;;12.80;82.91
36598;BME280;22607;49.550;11.940;2023-05-29T01:15:37;97008.97;;;12.75;84.50
36598;BME280;22607;49.550;11.940;2023-05-29T01:18:12;97023.16;;;12.74;82.00
36598;BME280;22607;49.550;11.940;2023-05-29T01:20:53;97001.34;;;12.50;85.31
36598;BME280;22607;49.550;11.940;2023-05-29T01:23:35;97022.50;;;12.72;84.22
36598;BME280;22607;49.550;11.940;2023-05-29T01:28:47;97021.34;;;12.59;86.12
36598;BME280;22607;49.550;11.940;2023-05-29T01:31:19;97011.69;;;12.37;86.22
36598;BME280;22607;49.550;11.940;2023-05-29T01:33:58;97019.03;;;12.26;87.99
36598;BME280;22607;49.550;11.940;2023-05-29T01:36:36;97015.63;;;12.17;88.47
36598;BME280;22607;49.550;11.940;2023-05-29T01:39:03;97018.09;;;12.19;88.16
36598;BME280;22607;49.550;11.940;2023-05-29T01:41:39;97013.47;;;12.21;88.39
36598;BME280;22607;49.550;11.940;2023-05-29T01:44:08;97017.47;;;12.17;85.78
36598;BME280;22607;49.550;11.940;2023-05-29T01:46:41;97018.09;;;12.19;87.82
36598;BME280;22607;49.550;11.940;2023-05-29T01:49:09;97011.53;;;12.15;86.75
36598;BME280;22607;49.550;11.940;2023-05-29T01:51:41;97006.81;;;12.10;91.20
36598;BME280;22607;49.550;11.940;2023-05-29T01:54:07;97007.00;;;12.08;90.02
36598;BME280;22607;49.550;11.940;2023-05-29T01:56:36;97010.63;;;12.07;87.55
36598;BME280;22607;49.550;11.940;2023-05-29T01:59:03;97002.47;;;11.94;88.87
36598;BME280;22607;49.550;11.940;2023-05-29T02:01:33;96998.84;;;11.95;89.98
36598;BME280;22607;49.550;11.940;2023-05-29T02:04:00;97007.25;;;11.90;89.68
36598;BME280;22607;49.550;11.940;2023-05-29T02:06:26;97001.28;;;11.73;92.35
36598;BME280;22607;49.550;11.940;2023-05-29T02:08:53;96993.34;;;11.81;89.67
36598;BME280;22607;49.550;11.940;2023-05-29T02:11:19;96995.91;;;11.90;87.13
36598;BME280;22607;49.550;11.940;2023-05-29T02:13:46;96995.91;;;11.90;89.94
36598;BME280;22607;49.550;11.940;2023-05-29T02:16:13;96995.16;;;11.81;91.03
36598;BME280;22607;49.550;11.940;2023-05-29T02:18:40;96997.50;;;11.76;91.67
36598;BME280;22607;49.550;11.940;2023-05-29T02:21:07;96998.97;;;11.55;94.01
36598;BME280;22607;49.550;11.940;2023-05-29T02:23:35;96997.03;;;11.72;93.81
36598;BME280;22607;49.550;11.940;2023-05-29T02:26:02;96993.97;;;11.84;89.29
36598;BME280;22607;49.550;11.940;2023-05-29T02:28:28;96987.38;;;11.64;90.21
36598;BME280;22607;49.550;11.940;2023-05-29T02:30:55;96987.84;;;11.68;93.18
36598;BME280;22607;49.550;11.940;2023-05-29T02:33:22;96991.88;;;11.55;94.81
36598;BME280;22607;49.550;11.940;2023-05-29T02:35:49;96994.44;;;11.40;97.01
36598;BME280;22607;49.550;11.940;2023-05-29T02:38:15;96989.69;;;11.36;98.76
36598;BME280;22607;49.550;11.940;2023-05-29T02:40:42;96992.13;;;11.14;100.00
36598;BME280;22607;49.550;11.940;2023-05-29T02:43:11;96991.44;;;11.20;97.85
36598;BME280;22607;49.550;11.940;2023-05-29T02:45:39;96988.53;;;11.38;95.79
36598;BME280;22607;49.550;11.940;2023-05-29T02:48:06;96978.31;;;11.43;95.47
36598;BME280;22607;49.550;11.940;2023-05-29T02:50:46;96987.84;;;11.45;95.51
36598;BME280;22607;49.550;11.940;2023-05-29T02:53:12;96985.16;;;11.53;92.64
36598;BME280;22607;49.550;11.940;2023-05-29T02:55:41;96979.75;;;11.46;95.40
36598;BME280;22607;49.550;11.940;2023-05-29T02:58:09;96974.03;;;11.42;93.03
36598;BME280;22607;49.550;11.940;2023-05-29T03:00:35;96980.88;;;11.28;96.19
36598;BME280;22607;49.550;11.940;2023-05-29T03:03:02;96982.41;;;11.14;96.57
36598;BME280;22607;49.550;11.940;2023-05-29T03:05:30;96984.78;;;11.01;99.38
36598;BME280;22607;49.550;11.940;2023-05-29T03:07:56;96982.38;;;10.91;100.00
36598;BME280;22607;49.550;11.940;2023-05-29T03:10:23;96991.09;;;10.83;99.46
36598;BME280;22607;49.550;11.940;2023-05-29T03:12:50;96993.84;;;10.90;100.00
36598;BME280;22607;49.550;11.940;2023-05-29T03:15:17;96981.88;;;10.87;100.00
36598;BME280;22607;49.550;11.940;2023-05-29T03:17:46;96978.31;;;10.72;100.00
36598;BME280;22607;49.550;11.940;2023-05-29T03:20:15;96979.94;;;10.81;100.00
36598;BME280;22607;49.550;11.940;2023-05-29T03:22:42;96972.75;;;10.67;100.00
36598;BME280;22607;49.550;11.940;2023-05-29T03:25:08;96974.19;;;10.86;100.00
36598;BME280;22607;49.550;11.940;2023-05-29T03:27:35;96978.13;;;10.82;100.00
36598;BME280;22607;49.550;11.940;2023-05-29T03:30:04;96986.31;;;10.87;100.00
36598;BME280;22607;49.550;11.940;2023-05-29T03:32:31;96988.28;;;10.85;97.66
36598;BME280;22607;49.550;11.940;2023-05-29T03:34:59;96976.44;;;10.89;95.72
36598;BME280;22607;49.550;11.940;2023-05-29T03:37:31;96988.28;;;10.85;100.00
36598;BME280;22607;49.550;11.940;2023-05-29T03:39:57;96987.34;;;10.77;100.00
36598;BME280;22607;49.550;11.940;2023-05-29T03:42:27;96983.25;;;10.75;100.00
36598;BME280;22607;49.550;11.940;2023-05-29T03:44:54;96975.88;;;10.62;98.35
36598;BME280;22607;49.550;11.940;2023-05-29T03:47:21;96991.28;;;10.73;99.55
36598;BME280;22607;49.550;11.940;2023-05-29T03:49:56;96992.75;;;10.84;100.00
36598;BME280;22607;49.550;11.940;2023-05-29T03:52:23;96994.75;;;10.74;100.00
36598;BME280;22607;49.550;11.940;2023-05-29T03:54:49;96995.56;;;10.74;100.00
36598;BME280;22607;49.550;11.940;2023-05-29T03:57:16;96996.88;;;10.70;100.00
36598;BME280;22607;49.550;11.940;2023-05-29T03:59:43;96995.56;;;10.66;100.00
36598;BME280;22607;49.550;11.940;2023-05-29T04:02:09;96996.84;;;10.79;98.92
36598;BME280;22607;49.550;11.940;2023-05-29T04:04:41;96985.91;;;10.67;100.00
36598;BME280;22607;49.550;11.940;2023-05-29T04:07:07;96989.72;;;10.96;100.00
36598;BME280;22607;49.550;11.940;2023-05-29T04:09:34;97000.72;;;10.99;100.00
36598;BME280;22607;49.550;11.940;2023-05-29T04:12:01;97002.56;;;10.90;100.00
36598;BME280;22607;49.550;11.940;2023-05-29T04:14:32;97010.13;;;10.85;100.00
36598;BME280;22607;49.550;11.940;2023-05-29T04:16:58;97010.28;;;10.92;100.00
36598;BME280;22607;49.550;11.940;2023-05-29T04:19:25;97007.78;;;10.99;100.00
36598;BME280;22607;49.550;11.940;2023-05-29T04:21:52;97014.78;;;11.15;100.00
36598;BME280;22607;49.550;11.940;2023-05-29T04:24:18;97008.53;;;11.16;100.00
36598;BME280;22607;49.550;11.940;2023-05-29T04:26:45;97013.63;;;11.18;100.00
36598;BME280;22607;49.550;11.940;2023-05-29T04:29:11;97017.44;;;11.07;100.00
36598;BME280;22607;49.550;11.940;2023-05-29T04:31:39;97026.09;;;11.15;100.00
36598;BME280;22607;49.550;11.940;2023-05-29T04:34:06;97028.75;;;11.47;99.04
36598;BME280;22607;49.550;11.940;2023-05-29T04:36:33;97032.53;;;12.23;93.63
36598;BME280;22607;49.550;11.940;2023-05-29T04:39:05;97024.78;;;12.60;90.28
36598;BME280;22607;49.550;11.940;2023-05-29T04:41:40;97041.19;;;13.52;82.81
36598;BME280;22607;49.550;11.940;2023-05-29T04:44:07;97040.72;;;14.08;77.10
36598;BME280;22607;49.550;11.940;2023-05-29T04:46:34;97039.34;;;14.40;74.92
36598;BME280;22607;49.550;11.940;2023-05-29T04:49:02;97042.13;;;14.82;71.86
36598;BME280;22607;49.550;11.940;2023-05-29T04:51:29;97034.16;;;15.11;69.14
36598;BME280;22607;49.550;11.940;2023-05-29T04:53:56;97052.22;;;15.07;70.48
36598;BME280;22607;49.550;11.940;2023-05-29T04:56:23;97054.91;;;15.63;67.37
36598;BME280;22607;49.550;11.940;2023-05-29T04:58:49;97055.25;;;16.16;63.72
36598;BME280;22607;49.550;11.940;2023-05-29T05:01:17;97055.47;;;16.27;62.84
36598;BME280;22607;49.550;11.940;2023-05-29T05:03:43;97050.31;;;16.60;61.38
36598;BME280;22607;49.550;11.940;2023-05-29T05:06:17;97052.53;;;16.97;60.24
36598;BME280;22607;49.550;11.940;2023-05-29T05:08:45;97067.22;;;16.99;60.75
36598;BME280;22607;49.550;11.940;2023-05-29T05:11:11;97057.94;;;17.36;59.99
36598;BME280;22607;49.550;11.940;2023-05-29T05:13:38;97052.91;;;17.66;58.18
36598;BME280;22607;49.550;11.940;2023-05-29T05:16:05;97057.16;;;17.74;58.18
36598;BME280;22607;49.550;11.940;2023-05-29T05:18:32;97049.28;;;17.93;56.67
36598;BME280;22607;49.550;11.940;2023-05-29T05:20:58;97059.50;;;18.28;55.85
36598;BME280;22607;49.550;11.940;2023-05-29T05:23:25;97055.75;;;18.10;56.42
36598;BME280;22607;49.550;11.940;2023-05-29T05:25:52;97055.81;;;18.55;54.30
36598;BME280;22607;49.550;11.940;2023-05-29T05:28:18;97054.78;;;18.56;53.33
36598;BME280;22607;49.550;11.940;2023-05-29T05:30:45;97059.78;;;18.89;52.27
36598;BME280;22607;49.550;11.940;2023-05-29T05:33:13;97056.13;;;19.09;52.35
36598;BME280;22607;49.550;11.940;2023-05-29T05:35:40;97055.28;;;19.27;52.32
36598;BME280;22607;49.550;11.940;2023-05-29T05:38:08;97056.72;;;19.61;51.98
36598;BME280;22607;49.550;11.940;2023-05-29T05:40:35;97055.25;;;19.96;49.54
36598;BME280;22607;49.550;11.940;2023-05-29T05:43:02;97054.94;;;20.04;48.94
36598;BME280;22607;49.550;11.940;2023-05-29T05:45:29;97052.50;;;20.02;47.91
36598;BME280;22607;49.550;11.940;2023-05-29T05:47:56;97061.25;;;20.22;47.87
36598;BME280;22607;49.550;11.940;2023-05-29T05:50:29;97055.34;;;20.19;47.84
36598;BME280;22607;49.550;11.940;2023-05-29T05:52:56;97057.84;;;20.57;46.71
36598;BME280;22607;49.550;11.940;2023-05-29T05:55:22;97053.41;;;20.75;46.62
36598;BME280;22607;49.550;11.940;2023-05-29T05:57:49;97058.41;;;20.71;46.23
36598;BME280;22607;49.550;11.940;2023-05-29T06:00:16;97067.69;;;20.56;44.92
36598;BME280;22607;49.550;11.940;2023-05-29T06:02:43;97058.28;;;20.54;44.90
36598;BME280;22607;49.550;11.940;2023-05-29T06:05:11;97063.50;;;20.49;45.03
36598;BME280;22607;49.550;11.940;2023-05-29T06:07:38;97059.34;;;20.77;45.17
36598;BME280;22607;49.550;11.940;2023-05-29T06:10:05;97066.31;;;21.02;43.65
36598;BME280;22607;49.550;11.940;2023-05-29T06:12:33;97049.03;;;20.92;44.15
36598;BME280;22607;49.550;11.940;2023-05-29T06:15:00;97063.75;;;21.60;43.59
36598;BME280;22607;49.550;11.940;2023-05-29T06:17:27;97058.41;;;21.89;42.80
36598;BME280;22607;49.550;11.940;2023-05-29T06:19:53;97061.75;;;21.96;43.95
36598;BME280;22607;49.550;11.940;2023-05-29T06:22:20;97058.22;;;22.08;42.74
36598;BME280;22607;49.550;11.940;2023-05-29T06:24:46;97061.03;;;22.18;41.40
36598;BME280;22607;49.550;11.940;2023-05-29T06:27:13;97067.78;;;22.38;42.58
36598;BME280;22607;49.550;11.940;2023-05-29T06:29:40;97060.16;;;22.81;41.63
36598;BME280;22607;49.550;11.940;2023-05-29T06:32:07;97060.38;;;22.97;39.90
36598;BME280;22607;49.550;11.940;2023-05-29T06:34:33;97056.78;;;23.08;40.43
36598;BME280;22607;49.550;11.940;2023-05-29T06:37:00;97054.22;;;23.18;39.28
36598;BME280;22607;49.550;11.940;2023-05-29T06:39:26;97058.22;;;22.93;37.90
36598;BME280;22607;49.550;11.940;2023-05-29T06:42:00;97054.84;;;23.43;37.75
36598;BME280;22607;49.550;11.940;2023-05-29T06:44:27;97061.81;;;23.44;38.23
36598;BME280;22607;49.550;11.940;2023-05-29T06:46:54;97058.09;;;23.72;37.58
36598;BME280;22607;49.550;11.940;2023-05-29T06:49:21;97061.63;;;23.78;36.81
36598;BME280;22607;49.550;11.940;2023-05-29T06:51:47;97061.75;;;23.39;37.55
36598;BME280;22607;49.550;11.940;2023-05-29T06:54:14;97064.44;;;23.39;38.01
36598;BME280;22607;49.550;11.940;2023-05-29T06:56:41;97061.97;;;24.09;37.48
36598;BME280;22607;49.550;11.940;2023-05-29T06:59:08;97073.00;;;24.46;38.00
36598;BME280;22607;49.550;11.940;2023-05-29T07:01:35;97077.78;;;24.76;38.28
36598;BME280;22607;49.550;11.940;2023-05-29T07:04:02;97064.44;;;24.87;36.97
36598;BME280;22607;49.550;11.940;2023-05-29T07:06:28;97072.31;;;24.99;35.79
36598;BME280;22607;49.550;11.940;2023-05-29T07:08:55;97065.00;;;24.51;35.61
36598;BME280;22607;49.550;11.940;2023-05-29T07:11:27;97057.00;;;24.99;34.44
36598;BME280;22607;49.550;11.940;2023-05-29T07:13:54;97063.47;;;24.65;36.40
36598;BME280;22607;49.550;11.940;2023-05-29T07:16:21;97055.31;;;24.50;35.03
36598;BME280;22607;49.550;11.940;2023-05-29T07:18:51;97070.06;;;24.15;34.64
36598;BME280;22607;49.550;11.940;2023-05-29T07:21:17;97073.06;;;23.96;34.50
36598;BME280;22607;49.550;11.940;2023-05-29T07:23:46;97070.06;;;24.15;34.24
36598;BME280;22607;49.550;11.940;2023-05-29T07:26:12;97079.50;;;24.22;35.38
36598;BME280;22607;49.550;11.940;2023-05-29T07:28:40;97069.94;;;24.04;35.95
36598;BME280;22607;49.550;11.940;2023-05-29T07:31:08;97064.28;;;24.28;34.82
36598;BME280;22607;49.550;11.940;2023-05-29T07:33:35;97078.94;;;23.93;34.68
36598;BME280;22607;49.550;11.940;2023-05-29T07:36:03;97074.41;;;24.21;35.81
36598;BME280;22607;49.550;11.940;2023-05-29T07:38:29;97079.06;;;24.63;35.59
36598;BME280;22607;49.550;11.940;2023-05-29T07:40:56;97083.19;;;24.82;33.59
36598;BME280;22607;49.550;11.940;2023-05-29T07:43:24;97083.25;;;24.87;33.17
36598;BME280;22607;49.550;11.940;2023-05-29T07:45:52;97084.50;;;24.79;32.99
36598;BME280;22607;49.550;11.940;2023-05-29T07:48:20;97081.00;;;25.16;32.31
36598;BME280;22607;49.550;11.940;2023-05-29T07:50:48;97078.28;;;25.11;32.83
36598;BME280;22607;49.550;11.940;2023-05-29T07:53:15;97071.56;;;25.09;32.45
36598;BME280;22607;49.550;11.940;2023-05-29T07:55:46;97083.84;;;25.53;31.36
36598;BME280;22607;49.550;11.940;2023-05-29T07:58:12;97084.44;;;25.12;32.09
36598;BME280;22607;49.550;11.940;2023-05-29T08:00:43;97086.53;;;25.53;32.76
36598;BME280;22607;49.550;11.940;2023-05-29T08:03:15;97081.78;;;25.76;31.44
36598;BME280;22607;49.550;11.940;2023-05-29T08:05:42;97082.13;;;26.16;31.83
36598;BME280;22607;49.550;11.940;2023-05-29T08:08:09;97071.88;;;26.02;33.31
36598;BME280;22607;49.550;11.940;2023-05-29T08:10:39;97080.28;;;26.53;31.27
36598;BME280;22607;49.550;11.940;2023-05-29T08:13:05;97078.66;;;26.57;31.29
36598;BME280;22607;49.550;11.940;2023-05-29T08:15:32;97081.59;;;26.60;31.37
36598;BME280;22607;49.550;11.940;2023-05-29T08:17:59;97074.34;;;26.40;30.47
36598;BME280;22607;49.550;11.940;2023-05-29T08:20:28;97075.16;;;26.51;30.66
36598;BME280;22607;49.550;11.940;2023-05-29T08:22:55;97070.03;;;26.39;31.01
36598;BME280;22607;49.550;11.940;2023-05-29T08:25:23;97070.53;;;26.78;30.53
36598;BME280;22607;49.550;11.940;2023-05-29T08:27:50;97083.72;;;26.84;31.44
36598;BME280;22607;49.550;11.940;2023-05-29T08:30:16;97081.63;;;26.71;31.35
36598;BME280;22607;49.550;11.940;2023-05-29T08:32:43;97074.34;;;26.56;30.99
36598;BME280;22607;49.550;11.940;2023-05-29T08:35:10;97076.25;;;26.50;31.78
36598;BME280;22607;49.550;11.940;2023-05-29T08:37:36;97076.50;;;26.23;31.97
36598;BME280;22607;49.550;11.940;2023-05-29T08:40:03;97071.63;;;26.71;31.39
36598;BME280;22607;49.550;11.940;2023-05-29T08:42:59;97074.34;;;26.56;32.29
36598;BME280;22607;49.550;11.940;2023-05-29T08:45:29;97071.66;;;26.30;31.51
36598;BME280;22607;49.550;11.940;2023-05-29T08:48:00;97068.97;;;26.56;30.96
36598;BME280;22607;49.550;11.940;2023-05-29T08:50:27;97063.81;;;26.91;31.83
36598;BME280;22607;49.550;11.940;2023-05-29T08:52:54;97060.84;;;26.92;30.99
36598;BME280;22607;49.550;11.940;2023-05-29T08:55:22;97061.97;;;26.65;31.24
36598;BME280;22607;49.550;11.940;2023-05-29T08:57:50;97072.75;;;26.60;31.14
36598;BME280;22607;49.550;11.940;2023-05-29T09:00:17;97071.69;;;26.51;30.29
36598;BME280;22607;49.550;11.940;2023-05-29T09:02:46;97052.81;;;26.61;29.91
36598;BME280;22607;49.550;11.940;2023-05-29T09:05:13;97065.69;;;26.95;31.58
36598;BME280;22607;49.550;11.940;2023-05-29T09:07:40;97050.09;;;27.58;31.01
36598;BME280;22607;49.550;11.940;2023-05-29T09:10:08;97049.94;;;27.29;30.05
36598;BME280;22607;49.550;11.940;2023-05-29T09:12:36;97058.25;;;27.43;30.18
36598;BME280;22607;49.550;11.940;2023-05-29T09:15:06;97046.72;;;27.32;30.91
36598;BME280;22607;49.550;11.940;2023-05-29T09:17:34;97048.13;;;27.19;30.00
36598;BME280;22607;49.550;11.940;2023-05-29T09:20:01;97054.69;;;27.52;29.93
36598;BME280;22607;49.550;11.940;2023-05-29T09:22:42;97048.78;;;27.50;28.75
36598;BME280;22607;49.550;11.940;2023-05-29T09:25:09;97048.88;;;27.35;28.73
36598;BME280;22607;49.550;11.940;2023-05-29T09:27:39;97053.56;;;26.98;29.43
36598;BME280;22607;49.550;11.940;2023-05-29T09:30:09;97063.53;;;27.03;29.46
36598;BME280;22607;49.550;11.940;2023-05-29T09:32:35;97048.44;;;27.02;28.63
36598;BME280;22607;49.550;11.940;2023-05-29T09:35:02;97054.34;;;27.09;29.52
36598;BME280;22607;49.550;11.940;2023-05-29T09:37:31;97055.50;;;26.35;30.39
36598;BME280;22607;49.550;11.940;2023-05-29T09:39:59;97049.69;;;27.30;30.66
36598;BME280;22607;49.550;11.940;2023-05-29T09:42:28;97053.13;;;27.97;29.81
36598;BME280;22607;49.550;11.940;2023-05-29T09:45:00;97052.09;;;27.32;28.24
36598;BME280;22607;49.550;11.940;2023-05-29T09:47:33;97057.22;;;27.33;28.29
36598;BME280;22607;49.550;11.940;2023-05-29T09:50:00;97062.41;;;27.09;27.99
36598;BME280;22607;49.550;11.940;2023-05-29T09:52:29;97058.63;;;27.10;27.61
36598;BME280;22607;49.550;11.940;2023-05-29T09:54:57;97051.66;;;27.04;28.05
36598;BME280;22607;49.550;11.940;2023-05-29T09:57:24;97053.88;;;26.44;29.33
36598;BME280;22607;49.550;11.940;2023-05-29T09:59:52;97058.13;;;26.87;28.31
36598;BME280;22607;49.550;11.940;2023-05-29T10:02:19;97058.44;;;26.75;27.96
36598;BME280;22607;49.550;11.940;2023-05-29T10:04:53;97054.91;;;26.95;28.09
36598;BME280;22607;49.550;11.940;2023-05-29T10:07:27;97057.88;;;26.78;27.42
36598;BME280;22607;49.550;11.940;2023-05-29T10:09:59;97056.00;;;26.79;27.37
36598;BME280;22607;49.550;11.940;2023-05-29T10:12:29;97053.34;;;26.53;28.46
36598;BME280;22607;49.550;11.940;2023-05-29T10:14:59;97059.00;;;26.56;28.48
36598;BME280;22607;49.550;11.940;2023-05-29T10:17:34;97053.88;;;26.70;28.30
36598;BME280;22607;49.550;11.940;2023-05-29T10:20:09;97050.13;;;26.61;29.33
36598;BME280;22607;49.550;11.940;2023-05-29T10:22:46;97044.69;;;26.92;28.62
36598;BME280;22607;49.550;11.940;2023-05-29T10:25:14;97051.66;;;27.04;27.26
36598;BME280;22607;49.550;11.940;2023-05-29T10:27:44;97035.25;;;26.79;28.92
36598;BME280;22607;49.550;11.940;2023-05-29T10:30:22;97053.28;;;27.05;28.17
36598;BME280;22607;49.550;11.940;2023-05-29T10:33:09;97041.88;;;27.23;28.41
36598;BME280;22607;49.550;11.940;2023-05-29T10:38:46;97047.41;;;26.61;28.48
36598;BME280;22607;49.550;11.940;2023-05-29T10:43:57;97034.22;;;26.54;28.29
36598;BME280;22607;49.550;11.940;2023-05-29T10:49:19;97035.44;;;27.14;29.88
36598;BME280;22607;49.550;11.940;2023-05-29T10:51:47;97034.03;;;27.32;27.53
36598;BME280;22607;49.550;11.940;2023-05-29T10:54:15;97026.44;;;27.39;28.07
36598;BME280;22607;49.550;11.940;2023-05-29T10:56:57;97031.72;;;27.71;28.61
36598;BME280;22607;49.550;11.940;2023-05-29T10:59:24;97026.97;;;27.92;27.16
36598;BME280;22607;49.550;11.940;2023-05-29T11:01:55;97025.19;;;27.77;27.45
36598;BME280;22607;49.550;11.940;2023-05-29T11:06:52;97025.72;;;27.23;26.92
36598;BME280;22607;49.550;11.940;2023-05-29T11:09:30;97033.94;;;26.71;26.57
36598;BME280;22607;49.550;11.940;2023-05-29T11:12:25;97023.09;;;27.03;27.11
36598;BME280;22607;49.550;11.940;2023-05-29T11:15:05;97026.06;;;27.01;27.96
36598;BME280;22607;49.550;11.940;2023-05-29T11:20:16;97026.34;;;26.89;26.98
36598;BME280;22607;49.550;11.940;2023-05-29T11:25:22;97015.28;;;27.06;27.34
36598;BME280;22607;49.550;11.940;2023-05-29T11:27:49;97021.34;;;27.33;26.75
36598;BME280;22607;49.550;11.940;2023-05-29T11:30:16;97023.16;;;27.53;27.21
36598;BME280;22607;49.550;11.940;2023-05-29T11:32:45;97015.47;;;27.25;27.31
36598;BME280;22607;49.550;11.940;2023-05-29T11:35:13;97005.19;;;27.33;26.78
36598;BME280;22607;49.550;11.940;2023-05-29T11:37:42;97015.53;;;27.05;28.43
36598;BME280;22607;49.550;11.940;2023-05-29T11:40:15;97020.19;;;27.55;26.69
36598;BME280;22607;49.550;11.940;2023-05-29T11:42:44;97013.16;;;27.59;27.70
36598;BME280;22607;49.550;11.940;2023-05-29T11:45:15;97016.38;;;27.56;27.53
36598;BME280;22607;49.550;11.940;2023-05-29T11:47:55;97018.81;;;27.62;26.93
36598;BME280;22607;49.550;11.940;2023-05-29T11:50:27;97005.25;;;27.17;26.44
36598;BME280;22607;49.550;11.940;2023-05-29T11:52:56;97016.41;;;26.90;26.33
36598;BME280;22607;49.550;11.940;2023-05-29T11:55:24;97005.91;;;26.78;26.92
36598;BME280;22607;49.550;11.940;2023-05-29T11:57:56;97011.75;;;27.06;28.21
36598;BME280;22607;49.550;11.940;2023-05-29T12:00:23;97018.59;;;27.48;28.05
36598;BME280;22607;49.550;11.940;2023-05-29T12:02:51;97027.88;;;27.26;27.67
36598;BME280;22607;49.550;11.940;2023-05-29T12:05:18;97009.59;;;27.13;26.11
36598;BME280;22607;49.550;11.940;2023-05-29T12:07:51;96993.06;;;27.30;25.51
36598;BME280;22607;49.550;11.940;2023-05-29T12:10:21;97007.25;;;27.51;28.79
36598;BME280;22607;49.550;11.940;2023-05-29T12:12:52;97006.53;;;27.86;27.34
36598;BME280;22607;49.550;11.940;2023-05-29T12:15:20;97002.88;;;28.01;26.69
36598;BME280;22607;49.550;11.940;2023-05-29T12:17:49;96999.97;;;27.97;25.86
36598;BME280;22607;49.550;11.940;2023-05-29T12:20:18;96993.22;;;27.95;26.50
36598;BME280;22607;49.550;11.940;2023-05-29T12:22:45;96988.97;;;27.88;26.29
36598;BME280;22607;49.550;11.940;2023-05-29T12:25:21;97002.50;;;27.83;26.55
36598;BME280;22607;49.550;11.940;2023-05-29T12:27:49;97003.22;;;27.94;26.39
36598;BME280;22607;49.550;11.940;2023-05-29T12:30:21;96999.69;;;28.34;24.92
36598;BME280;22607;49.550;11.940;2023-05-29T12:32:59;96995.78;;;28.10;24.50
36598;BME280;22607;49.550;11.940;2023-05-29T12:35:28;96993.81;;;27.86;24.53
36598;BME280;22607;49.550;11.940;2023-05-29T12:40:27;97000.56;;;27.89;25.21
36598;BME280;22607;49.550;11.940;2023-05-29T12:42:59;96995.44;;;28.52;24.56
36598;BME280;22607;49.550;11.940;2023-05-29T12:45:27;96986.63;;;28.46;23.23
36598;BME280;22607;49.550;11.940;2023-05-29T12:47:56;96988.31;;;28.37;24.12
36598;BME280;22607;49.550;11.940;2023-05-29T12:50:28;96975.53;;;28.72;23.42
36598;BME280;22607;49.550;11.940;2023-05-29T12:53:04;96983.13;;;28.70;23.71
36598;BME280;22607;49.550;11.940;2023-05-29T12:55:33;96987.31;;;28.22;24.21
36598;BME280;22607;49.550;11.940;2023-05-29T12:58:03;96982.94;;;28.32;24.06
36598;BME280;22607;49.550;11.940;2023-05-29T13:00:29;96980.56;;;27.90;24.96
36598;BME280;22607;49.550;11.940;2023-05-29T13:02:58;96985.53;;;28.12;24.50
36598;BME280;22607;49.550;11.940;2023-05-29T13:05:25;96981.06;;;28.32;24.39
36598;BME280;22607;49.550;11.940;2023-05-29T13:07:52;96978.31;;;28.02;23.91
36598;BME280;22607;49.550;11.940;2023-05-29T13:10:19;96974.78;;;28.42;23.04
36598;BME280;22607;49.550;11.940;2023-05-29T13:12:47;96972.38;;;28.06;23.49
36598;BME280;22607;49.550;11.940;2023-05-29T13:15:14;96964.22;;;28.11;24.02
36598;BME280;22607;49.550;11.940;2023-05-29T13:17:41;96966.97;;;28.06;23.90
36598;BME280;22607;49.550;11.940;2023-05-29T13:20:12;96955.81;;;27.83;23.24